createdAt,value
2019-05-13T00:01:47.954Z,15.10
2019-05-13T00:04:24.208Z,15.20
2019-05-13T00:07:04.858Z,15.10
2019-05-13T00:09:39.029Z,15.00
2019-05-13T00:12:13.780Z,15.00
2019-05-13T00:14:49.695Z,15.00
2019-05-13T00:17:23.799Z,15.00
2019-05-13T00:19:58.462Z,14.90
2019-05-13T00:22:33.964Z,14.90
2019-05-13T00:25:08.017Z,14.90
2019-05-13T00:27:44.470Z,14.90
2019-05-13T00:30:19.427Z,14.90
2019-05-13T00:32:54.609Z,15.00
2019-05-13T00:35:29.098Z,14.90
2019-05-13T00:38:03.831Z,15.00
2019-05-13T00:40:40.068Z,14.90
2019-05-13T00:43:14.434Z,14.90
2019-05-13T00:45:48.516Z,14.90
2019-05-13T00:48:23.351Z,14.90
2019-05-13T00:50:57.938Z,14.90
2019-05-13T00:53:35.114Z,14.80
2019-05-13T00:56:16.622Z,14.90
2019-05-13T00:58:56.345Z,14.90
2019-05-13T01:01:30.438Z,14.90
2019-05-13T01:04:05.011Z,14.90
2019-05-13T01:06:39.259Z,14.90
2019-05-13T01:09:14.617Z,14.90
2019-05-13T01:11:48.809Z,14.90
2019-05-13T01:14:23.981Z,14.80
2019-05-13T01:17:03.652Z,14.80
2019-05-13T01:19:37.687Z,14.80
2019-05-13T01:22:13.525Z,14.90
2019-05-13T01:24:46.801Z,14.80
2019-05-13T01:27:18.937Z,14.80
2019-05-13T01:29:53.467Z,14.80
2019-05-13T01:32:27.980Z,14.80
2019-05-13T01:35:04.598Z,14.80
2019-05-13T01:37:42.457Z,14.90
2019-05-13T01:40:14.774Z,14.90
2019-05-13T01:42:49.888Z,14.80
2019-05-13T01:45:24.082Z,14.80
2019-05-13T01:47:57.420Z,14.70
2019-05-13T01:50:33.748Z,14.70
2019-05-13T01:53:08.436Z,14.70
2019-05-13T01:55:44.265Z,14.70
2019-05-13T01:58:18.599Z,14.80
2019-05-13T02:00:54.934Z,14.80
2019-05-13T02:03:29.981Z,14.70
2019-05-13T02:06:03.990Z,14.70
2019-05-13T02:08:37.718Z,14.70
2019-05-13T02:11:13.303Z,14.80
2019-05-13T02:13:54.004Z,14.80
2019-05-13T02:16:28.474Z,14.70
2019-05-13T02:19:04.062Z,14.70
2019-05-13T02:21:38.027Z,14.70
2019-05-13T02:24:11.801Z,14.70
2019-05-13T02:26:47.931Z,14.70
2019-05-13T02:29:24.493Z,14.70
2019-05-13T02:31:58.745Z,14.70
2019-05-13T02:34:34.034Z,14.70
2019-05-13T02:37:07.760Z,14.70
2019-05-13T02:39:42.739Z,14.70
2019-05-13T02:42:17.668Z,14.70
2019-05-13T02:44:52.971Z,14.80
2019-05-13T02:47:27.950Z,14.80
2019-05-13T02:50:04.811Z,14.90
2019-05-13T02:52:37.059Z,14.80
2019-05-13T02:55:12.507Z,14.80
2019-05-13T02:57:46.988Z,14.70
2019-05-13T03:00:23.585Z,14.70
2019-05-13T03:02:57.917Z,14.70
2019-05-13T03:05:32.678Z,14.80
2019-05-13T03:08:06.470Z,14.70
2019-05-13T03:10:43.142Z,14.80
2019-05-13T03:13:17.750Z,14.80
2019-05-13T03:16:04.570Z,14.80
2019-05-13T03:18:39.382Z,14.90
2019-05-13T03:21:13.334Z,14.90
2019-05-13T03:23:47.344Z,14.80
2019-05-13T03:26:23.505Z,14.90
2019-05-13T03:28:56.697Z,14.80
2019-05-13T03:31:35.617Z,14.90
2019-05-13T03:34:07.456Z,14.90
2019-05-13T03:36:46.134Z,14.90
2019-05-13T03:39:18.445Z,14.90
2019-05-13T03:41:54.679Z,14.90
2019-05-13T03:44:34.059Z,14.90
2019-05-13T03:47:12.690Z,14.90
2019-05-13T03:49:46.580Z,15.00
2019-05-13T03:52:22.484Z,15.00
2019-05-13T03:54:56.753Z,15.00
2019-05-13T03:57:33.755Z,15.00
2019-05-13T04:00:07.576Z,14.90
2019-05-13T04:02:42.856Z,14.90
2019-05-13T04:05:16.459Z,14.90
2019-05-13T04:07:52.296Z,14.90
2019-05-13T04:10:25.073Z,14.90
2019-05-13T04:12:58.942Z,14.80
2019-05-13T04:15:33.235Z,14.80
2019-05-13T04:18:12.568Z,14.80
2019-05-13T04:20:46.929Z,14.80
2019-05-13T04:23:23.205Z,14.90
2019-05-13T04:25:56.860Z,14.90
2019-05-13T04:28:32.961Z,14.90
2019-05-13T04:31:14.418Z,14.90
2019-05-13T04:33:48.646Z,14.90
2019-05-13T04:36:23.877Z,14.90
2019-05-13T04:38:58.438Z,14.90
2019-05-13T04:41:33.216Z,14.90
2019-05-13T04:44:08.604Z,14.90
2019-05-13T04:46:43.428Z,14.90
2019-05-13T04:49:17.621Z,14.90
2019-05-13T04:51:53.224Z,14.80
2019-05-13T04:54:27.260Z,14.80
2019-05-13T04:57:02.958Z,14.90
2019-05-13T04:59:40.340Z,14.80
2019-05-13T05:02:46.078Z,14.90
2019-05-13T05:05:48.663Z,14.90
2019-05-13T05:09:07.966Z,14.90
2019-05-13T05:12:19.156Z,14.90
2019-05-13T05:15:41.859Z,14.80
2019-05-13T05:19:02.055Z,14.90
2019-05-13T05:22:31.387Z,14.80
2019-05-13T05:25:29.806Z,14.80
2019-05-13T05:29:01.508Z,14.80
2019-05-13T05:32:15.049Z,14.80
2019-05-13T05:35:37.809Z,14.80
2019-05-13T05:39:09.266Z,14.80
2019-05-13T05:41:47.928Z,14.80
2019-05-13T05:44:27.113Z,14.80
2019-05-13T05:47:06.928Z,14.80
2019-05-13T05:49:43.707Z,14.80
2019-05-13T05:52:21.431Z,14.80
2019-05-13T05:54:56.185Z,14.80
2019-05-13T05:57:32.008Z,14.90
2019-05-13T06:00:07.360Z,14.90
2019-05-13T06:02:44.751Z,14.90
2019-05-13T06:05:18.763Z,14.90
2019-05-13T06:07:52.859Z,14.90
2019-05-13T06:10:26.820Z,14.90
2019-05-13T06:13:01.905Z,14.90
2019-05-13T06:15:36.092Z,14.90
2019-05-13T06:18:11.836Z,14.90
2019-05-13T06:20:46.908Z,14.90
2019-05-13T06:23:22.130Z,15.00
2019-05-13T06:26:01.962Z,15.00
2019-05-13T06:28:36.234Z,14.90
2019-05-13T06:31:12.905Z,14.80
2019-05-13T06:33:48.759Z,14.80
2019-05-13T06:36:23.524Z,14.80
2019-05-13T06:39:05.266Z,14.90
2019-05-13T06:41:41.673Z,14.80
2019-05-13T06:44:15.368Z,14.80
2019-05-13T06:46:51.672Z,14.90
2019-05-13T06:49:28.012Z,14.90
2019-05-13T06:52:03.109Z,14.90
2019-05-13T06:54:37.900Z,14.80
2019-05-13T06:57:13.480Z,14.90
2019-05-13T06:59:49.194Z,14.90
2019-05-13T07:02:23.310Z,14.90
2019-05-13T07:05:06.247Z,14.90
2019-05-13T07:07:43.093Z,15.00
2019-05-13T07:10:21.468Z,15.00
2019-05-13T07:12:56.958Z,15.10
2019-05-13T07:15:36.844Z,15.20
2019-05-13T07:18:17.562Z,15.20
2019-05-13T07:20:53.385Z,15.20
2019-05-13T07:23:33.390Z,15.20
2019-05-13T07:26:06.162Z,15.20
2019-05-13T07:28:42.669Z,15.20
2019-05-13T07:31:17.102Z,15.20
2019-05-13T07:33:51.756Z,15.10
2019-05-13T07:36:39.224Z,15.00
2019-05-13T07:39:14.692Z,15.10
2019-05-13T07:41:52.073Z,15.10
2019-05-13T07:44:35.905Z,15.00
2019-05-13T07:47:15.804Z,15.00
2019-05-13T07:49:51.579Z,15.10
2019-05-13T07:52:32.165Z,15.00
2019-05-13T07:55:13.838Z,15.10
2019-05-13T07:57:54.040Z,15.30
2019-05-13T08:00:28.972Z,15.30
2019-05-13T08:03:13.232Z,15.30
2019-05-13T08:05:51.071Z,15.50
2019-05-13T08:08:32.198Z,15.40
2019-05-13T08:11:10.058Z,15.40
2019-05-13T08:13:44.677Z,15.40
2019-05-13T08:16:22.364Z,15.30
2019-05-13T08:18:57.698Z,15.30
2019-05-13T08:21:37.365Z,15.40
2019-05-13T08:24:36.030Z,15.50
2019-05-13T08:27:20.931Z,15.40
2019-05-13T08:29:52.887Z,15.40
2019-05-13T08:32:34.666Z,15.40
2019-05-13T08:35:25.089Z,15.30
2019-05-13T08:38:14.900Z,15.40
2019-05-13T08:44:02.165Z,15.40
2019-05-13T08:46:41.404Z,15.50
2019-05-13T08:49:18.896Z,15.60
2019-05-13T08:51:52.849Z,15.70
2019-05-13T08:54:27.536Z,15.70
2019-05-13T08:57:15.544Z,15.70
2019-05-13T08:59:56.696Z,15.90
2019-05-13T09:02:31.806Z,15.90
2019-05-13T09:05:13.356Z,16.00
2019-05-13T09:08:03.764Z,16.10
2019-05-13T09:10:37.554Z,16.00
2019-05-13T09:13:17.601Z,16.00
2019-05-13T09:16:02.416Z,16.10
2019-05-13T09:18:44.844Z,16.30
2019-05-13T09:21:28.494Z,16.30
2019-05-13T09:24:19.353Z,16.10
2019-05-13T09:26:46.613Z,16.10
2019-05-13T09:29:43.192Z,16.20
2019-05-13T09:33:11.754Z,16.30
2019-05-13T09:35:53.814Z,16.30
2019-05-13T09:38:37.684Z,16.20
2019-05-13T09:41:38.572Z,16.20
2019-05-13T09:44:12.394Z,16.10
2019-05-13T09:47:21.688Z,15.90
2019-05-13T09:50:32.430Z,15.80
2019-05-13T09:53:05.644Z,15.70
2019-05-13T09:55:46.980Z,15.50
2019-05-13T09:58:33.817Z,15.40
2019-05-13T10:01:26.050Z,15.40
2019-05-13T10:04:03.011Z,15.30
2019-05-13T10:07:31.790Z,15.20
2019-05-13T10:09:57.040Z,15.40
2019-05-13T10:12:33.622Z,15.50
2019-05-13T10:15:09.575Z,15.70
2019-05-13T10:17:49.017Z,15.80
2019-05-13T10:20:52.219Z,15.90
2019-05-13T10:23:28.054Z,16.00
2019-05-13T10:27:04.587Z,16.10
2019-05-13T10:29:51.801Z,16.20
2019-05-13T10:32:35.084Z,16.30
2019-05-13T10:35:12.614Z,16.30
2019-05-13T10:37:52.434Z,16.10
2019-05-13T10:40:32.726Z,16.10
2019-05-13T10:43:29.309Z,16.20
2019-05-13T10:46:03.124Z,16.30
2019-05-13T10:48:52.605Z,16.30
2019-05-13T10:51:32.725Z,16.20
2019-05-13T10:54:52.703Z,16.10
2019-05-13T10:57:28.006Z,16.10
2019-05-13T11:00:13.448Z,15.90
2019-05-13T11:02:53.614Z,15.80
2019-05-13T11:09:52.678Z,15.70
2019-05-13T11:12:28.619Z,15.50
2019-05-13T11:15:21.284Z,15.60
2019-05-13T11:18:19.079Z,15.80
2019-05-13T11:21:02.113Z,15.80
2019-05-13T11:23:42.040Z,15.70
2019-05-13T11:26:36.132Z,15.70
2019-05-13T11:29:17.600Z,15.70
2019-05-13T11:32:45.744Z,15.80
2019-05-13T11:35:26.644Z,15.70
2019-05-13T11:38:01.927Z,15.90
2019-05-13T11:41:02.439Z,16.10
2019-05-13T11:43:36.205Z,16.20
2019-05-13T11:46:11.767Z,16.20
2019-05-13T11:53:30.045Z,16.30
2019-05-13T11:55:42.494Z,16.30
2019-05-13T11:58:18.116Z,16.40
2019-05-13T12:00:56.936Z,16.50
2019-05-13T12:03:32.478Z,16.40
2019-05-13T12:06:22.900Z,16.30
2019-05-13T12:09:03.108Z,16.40
2019-05-13T12:11:36.483Z,16.40
2019-05-13T12:36:49.865Z,16.50
2019-05-13T12:39:24.084Z,16.60
2019-05-13T12:46:38.414Z,16.40
2019-05-13T12:49:14.241Z,16.10
2019-05-13T12:55:56.881Z,16.20
2019-05-13T12:59:22.271Z,16.20
2019-05-13T13:03:12.994Z,16.20
2019-05-13T13:05:50.566Z,16.20
2019-05-13T13:11:14.657Z,16.30
2019-05-13T13:17:44.774Z,16.30
2019-05-13T13:20:41.660Z,16.40
2019-05-13T13:23:12.579Z,16.40
2019-05-13T13:34:53.663Z,16.50
2019-05-13T13:40:58.951Z,15.80
2019-05-13T13:45:11.084Z,15.50
2019-05-13T13:48:03.097Z,15.50
2019-05-13T13:54:38.198Z,15.70
2019-05-13T14:07:13.603Z,16.20
2019-05-13T14:37:58.630Z,15.90
2019-05-13T14:44:48.992Z,15.70
2019-05-13T14:48:22.446Z,15.60
2019-05-13T14:50:58.620Z,15.60
2019-05-13T14:58:04.232Z,15.50
2019-05-13T15:01:06.980Z,15.30
2019-05-13T15:03:23.709Z,15.20
2019-05-13T15:05:58.637Z,15.10
2019-05-13T15:09:18.478Z,15.00
2019-05-13T15:12:53.428Z,14.90
2019-05-13T15:18:52.223Z,14.80
2019-05-13T15:21:27.695Z,14.80
2019-05-13T15:24:38.243Z,14.80
2019-05-13T15:27:14.906Z,14.70
2019-05-13T15:29:51.696Z,14.70
2019-05-13T15:32:32.533Z,14.70
2019-05-13T15:35:09.980Z,14.70
2019-05-13T15:40:52.175Z,14.60
2019-05-13T15:43:31.591Z,14.50
2019-05-13T15:46:09.343Z,14.50
2019-05-13T15:48:43.990Z,14.40
2019-05-13T15:51:43.598Z,14.40
2019-05-13T15:54:34.754Z,14.40
2019-05-13T15:57:13.744Z,14.40
2019-05-13T16:00:21.976Z,14.40
2019-05-13T16:03:01.591Z,14.40
2019-05-13T16:05:42.343Z,14.40
2019-05-13T16:08:17.910Z,14.30
2019-05-13T16:10:58.483Z,14.30
2019-05-13T16:13:37.673Z,14.30
2019-05-13T16:16:33.674Z,14.30
2019-05-13T16:19:47.018Z,14.30
2019-05-13T16:22:41.961Z,14.30
2019-05-13T16:25:16.489Z,14.30
2019-05-13T16:27:55.830Z,14.30
2019-05-13T16:30:33.435Z,14.30
2019-05-13T16:33:12.716Z,14.30
2019-05-13T16:36:17.063Z,14.30
2019-05-13T16:38:51.812Z,14.30
2019-05-13T16:41:42.681Z,14.30
2019-05-13T16:44:22.478Z,14.30
2019-05-13T16:47:01.379Z,14.30
2019-05-13T16:49:41.028Z,14.20
2019-05-13T16:52:15.770Z,14.20
2019-05-13T16:55:12.604Z,14.20
2019-05-13T16:57:51.337Z,14.20
2019-05-13T17:00:31.726Z,14.10
2019-05-13T17:03:31.776Z,14.10
2019-05-13T17:06:14.582Z,14.10
2019-05-13T17:08:54.718Z,14.10
2019-05-13T17:11:36.808Z,14.10
2019-05-13T17:14:21.262Z,14.10
2019-05-13T17:16:57.644Z,14.10
2019-05-13T17:19:44.666Z,14.10
2019-05-13T17:22:28.369Z,14.10
2019-05-13T17:25:03.978Z,14.10
2019-05-13T17:27:43.636Z,14.10
2019-05-13T17:30:52.761Z,14.10
2019-05-13T17:37:06.139Z,14.10
2019-05-13T17:43:37.738Z,14.10
2019-05-13T17:46:21.357Z,14.10
2019-05-13T17:49:05.092Z,14.10
2019-05-13T17:51:42.780Z,14.10
2019-05-13T17:54:53.457Z,14.00
2019-05-13T17:58:06.458Z,14.00
2019-05-13T18:00:45.564Z,13.80
2019-05-13T18:03:25.140Z,13.80
2019-05-13T18:06:03.901Z,13.90
2019-05-13T18:08:41.402Z,13.90
2019-05-13T18:11:21.828Z,14.00
2019-05-13T18:14:05.133Z,14.10
2019-05-13T18:16:42.177Z,14.10
2019-05-13T18:19:25.682Z,14.10
2019-05-13T18:22:01.943Z,14.10
2019-05-13T18:24:37.605Z,14.10
2019-05-13T18:27:15.076Z,14.10
2019-05-13T18:30:47.242Z,14.10
2019-05-13T18:33:24.605Z,14.00
2019-05-13T18:36:05.341Z,14.00
2019-05-13T18:38:41.710Z,14.00
2019-05-13T18:41:15.622Z,14.00
2019-05-13T18:43:54.400Z,14.00
2019-05-13T18:46:33.344Z,14.00
2019-05-13T18:49:14.376Z,14.00
2019-05-13T18:51:49.906Z,14.10
2019-05-13T18:54:31.693Z,14.00
2019-05-13T18:57:05.043Z,14.00
2019-05-13T18:59:41.539Z,14.00
2019-05-13T19:02:22.508Z,14.00
2019-05-13T19:05:11.707Z,14.00
2019-05-13T19:07:51.298Z,14.00
2019-05-13T19:10:26.563Z,14.00
2019-05-13T19:13:07.070Z,14.10
2019-05-13T19:15:44.981Z,14.10
2019-05-13T19:18:26.136Z,14.10
2019-05-13T19:21:07.657Z,14.10
2019-05-13T19:23:44.239Z,14.00
2019-05-13T19:26:24.166Z,14.00
2019-05-13T19:29:03.150Z,14.00
2019-05-13T19:31:43.158Z,13.90
2019-05-13T19:34:22.996Z,14.00
2019-05-13T19:36:59.378Z,14.20
2019-05-13T19:39:35.788Z,14.20
2019-05-13T19:42:12.258Z,14.20
2019-05-13T19:44:52.462Z,14.20
2019-05-13T19:47:28.072Z,14.10
2019-05-13T19:50:04.718Z,14.10
2019-05-13T19:52:42.868Z,14.10
2019-05-13T19:55:16.365Z,14.10
2019-05-13T19:58:01.883Z,14.10
2019-05-13T20:00:38.712Z,14.00
2019-05-13T20:03:26.289Z,14.00
2019-05-13T20:06:22.944Z,14.00
2019-05-13T20:09:01.488Z,14.00
2019-05-13T20:11:37.767Z,13.90
2019-05-13T20:14:12.692Z,13.90
2019-05-13T20:16:47.821Z,13.90
2019-05-13T20:19:23.048Z,13.80
2019-05-13T20:21:58.270Z,13.80
2019-05-13T20:24:36.064Z,14.00
2019-05-13T20:27:13.455Z,14.10
2019-05-13T20:29:51.036Z,14.00
2019-05-13T20:32:24.646Z,14.00
2019-05-13T20:34:58.508Z,13.90
2019-05-13T20:37:34.995Z,13.80
2019-05-13T20:40:11.558Z,13.80
2019-05-13T20:42:47.422Z,13.80
2019-05-13T20:45:23.486Z,13.90
2019-05-13T20:48:04.819Z,13.80
2019-05-13T20:50:41.244Z,13.80
2019-05-13T20:53:21.735Z,13.80
2019-05-13T20:56:03.607Z,13.70
2019-05-13T20:58:42.028Z,13.80
2019-05-13T21:01:15.992Z,13.90
2019-05-13T21:03:51.340Z,13.80
2019-05-13T21:06:28.252Z,13.70
2019-05-13T21:09:03.338Z,13.70
2019-05-13T21:11:41.622Z,13.80
2019-05-13T21:14:22.976Z,13.70
2019-05-13T21:16:57.219Z,13.70
2019-05-13T21:19:39.334Z,13.80
2019-05-13T21:22:32.608Z,13.80
2019-05-13T21:25:08.705Z,13.80
2019-05-13T21:27:54.319Z,13.80
2019-05-13T21:30:32.713Z,13.80
2019-05-13T21:33:22.055Z,13.80
2019-05-13T21:35:57.442Z,13.80
2019-05-13T21:38:48.526Z,13.90
2019-05-13T21:41:27.042Z,14.00
2019-05-13T21:44:32.667Z,14.00
2019-05-13T21:47:42.712Z,14.00
2019-05-13T21:57:55.314Z,14.10
2019-05-13T22:00:42.970Z,14.10
2019-05-13T22:07:13.210Z,14.10
2019-05-13T22:09:52.147Z,14.10
2019-05-13T22:13:46.434Z,14.10
2019-05-13T22:20:49.914Z,14.00
2019-05-13T22:23:25.894Z,14.00
2019-05-13T22:26:34.371Z,14.10
2019-05-13T22:29:24.608Z,14.10
2019-05-13T22:32:43.321Z,14.20
2019-05-13T22:35:15.364Z,14.20
2019-05-13T22:37:51.220Z,14.30
2019-05-13T22:40:26.037Z,14.30
2019-05-13T22:46:57.498Z,14.40
2019-05-13T22:49:33.329Z,14.40
2019-05-13T22:52:08.647Z,14.40
2019-05-13T22:54:42.786Z,14.40
2019-05-13T22:57:38.032Z,14.30
2019-05-13T23:00:13.100Z,14.30
2019-05-13T23:03:06.758Z,14.30
2019-05-13T23:05:41.608Z,14.30
2019-05-13T23:08:15.970Z,14.20
2019-05-13T23:10:53.172Z,14.20
2019-05-13T23:13:31.298Z,14.20
2019-05-13T23:16:06.578Z,14.30
2019-05-13T23:18:42.208Z,14.30
2019-05-13T23:21:19.146Z,14.40
2019-05-13T23:23:53.723Z,14.40
2019-05-13T23:26:42.298Z,14.40
2019-05-13T23:29:18.532Z,14.40
2019-05-13T23:31:53.074Z,14.50
2019-05-13T23:34:33.934Z,14.50
2019-05-13T23:37:18.498Z,14.60
2019-05-13T23:39:52.367Z,14.60
2019-05-13T23:42:37.891Z,14.60
2019-05-13T23:45:21.807Z,14.70
2019-05-13T23:47:58.029Z,14.80
2019-05-13T23:50:34.981Z,14.80
2019-05-13T23:53:31.326Z,14.90
2019-05-13T23:56:03.259Z,14.90
2019-05-13T23:58:41.225Z,14.90
